Kensington, MD (20891)

5:14 PM EST on February 05, 2016 (GMT -0500)
Capitol View Park | | Change Station
CLOSE
Current Station
Personal Weather Station
Location: Silver Spring, MD
Elevation: 404 ft
Nearby Weather Stations
Active Advisory: Flood Warning

Elev 404 ft 39.02 °N, 77.06 °W | Updated 1 second ago

Clear
Clear
38.0 °F
Feels Like 38 °F
N
0.0
Wind Variable Wind from North
Gusts 6.0 mph

Today
High -- | Low -- °F
--% Chance of Precip.
Yesterday
High -- | Low -- °F
Precip. -- in
Pressure 30.33 in
Visibility 10.0 miles
Clouds Clear
Windchill 38 °F
Dew Point 21 °F
Humidity 50%
Rainfall 0.02 in
Snow Depth Not available.
7:11 AM 5:33 PM
Waning Crescent, 9% visible
METAR KCGS 052200Z AUTO 30006G17KT 10SM CLR 05/M08 A3033 RMK AO1
Pressure 30.33 in
Visibility 10.0 miles
Clouds Clear
Windchill 38 °F
Dew Point 21 °F
Humidity 50%
Rainfall 0.02 in
Snow Depth Not available.
7:11 AM 5:33 PM
Waning Crescent, 9% visible
METAR KCGS 052200Z AUTO 30006G17KT 10SM CLR 05/M08 A3033 RMK AO1

10-Day Weather Forecast

Almanac

Astronomy

Feb. 05, 2016 Rise Set
Actual Time
Civil Twilight
Nautical Twilight
Astronomical Twilight
Moon
Length of Visible Light
Length of Day
Tomorrow will be .
, % of the Moon is Illuminated

Today's Extremes

State Highs State Lows

Community

WunderPhotos

Upload Photos

1,890,876 photos uploaded!

WunderBlog® & News

Nearby

Air Quality

  Air Quality AQ Index Pollutant
Not available.

Snow Depth

Station Depth Elevation

Earthquake Activity

City Distance Mag. Time & Date
Minimum magnitude displayed is 2.5.

Coastal Water Temperatures

Place Temperature

Stations

Nearby Weather Stations

Station Location Temp. Windchill Dew Point Humidity Wind Precip. Elev Updated Type
                   

Watches & Warnings

Flood Warning
Issued: 9:56 AM EST Feb. 5, 2016 – National Weather Service

... Flood Warning extended until late tonight...

The Flood Warning continues for
the Potomac River at Edwards Ferry.
* Until late tonight.
* At 9 am Friday the stage was 17.2 feet.
* Flood stage is 15.0 feet.
* Moderate flooding is occurring and minor flooding is forecast.
* Recent activity... the maximum river stage in the 24 hours ending at
9 am Friday was 17.5 feet.
* Forecast... the river will continue to fall to below flood stage by
late this evening.
* Impact... at 17.0 feet... floodwaters begin to enter the store at
Whites Ferry.
* Flood history... this crest compares to a previous crest of 16.0 feet
on may 10 2013.


River flood observed 1pm 7pm 1am 7am crest
location stage stg day time Fri Fri Sat Sat stg day time

Potomac River
Edwards Ferry 15.0 17.2 Fri 9 am 16.7 15.5 14.3 13.4 crested

Lat... Lon 3920 7754 3911 7755 3905 7745 3903 7736
      3908 7730 3913 7745 3923 7744


Je